createdAt,value
2018-09-24T00:00:51.982Z,0.60
2018-09-24T00:03:23.475Z,0.60
2018-09-24T00:05:57.597Z,0.50
2018-09-24T00:08:28.870Z,0.70
2018-09-24T00:11:00.608Z,0.50
2018-09-24T00:13:31.563Z,0.40
2018-09-24T00:16:02.800Z,0.70
2018-09-24T00:18:35.393Z,0.63
2018-09-24T00:21:06.824Z,0.70
2018-09-24T00:23:38.549Z,0.53
2018-09-24T00:26:10.540Z,0.60
2018-09-24T00:28:42.657Z,0.60
2018-09-24T00:31:13.770Z,0.80
2018-09-24T00:33:44.870Z,0.60
2018-09-24T00:36:15.758Z,0.60
2018-09-24T00:38:48.109Z,0.63
2018-09-24T00:41:19.254Z,0.77
2018-09-24T00:43:50.484Z,0.70
2018-09-24T00:46:21.655Z,0.60
2018-09-24T00:48:52.786Z,0.80
2018-09-24T00:51:23.946Z,0.70
2018-09-24T00:53:55.211Z,0.67
2018-09-24T00:56:27.097Z,0.73
2018-09-24T00:58:58.358Z,0.83
2018-09-24T01:01:29.700Z,0.77
2018-09-24T01:04:00.967Z,0.80
2018-09-24T01:06:32.232Z,0.80
2018-09-24T01:09:03.936Z,0.80
2018-09-24T01:11:35.243Z,0.90
2018-09-24T01:14:06.355Z,0.90
2018-09-24T01:16:37.550Z,0.83
2018-09-24T01:19:08.909Z,0.80
2018-09-24T01:21:40.221Z,0.80
2018-09-24T01:24:11.436Z,0.80
2018-09-24T01:26:43.335Z,0.90
2018-09-24T01:29:14.463Z,0.80
2018-09-24T01:31:46.076Z,0.73
2018-09-24T01:34:17.215Z,1.03
2018-09-24T01:36:48.298Z,0.90
2018-09-24T01:39:19.441Z,1.10
2018-09-24T01:41:50.527Z,1.10
2018-09-24T01:44:21.670Z,1.33
2018-09-24T01:46:52.663Z,0.83
2018-09-24T01:49:24.670Z,0.90
2018-09-24T01:51:55.634Z,1.07
2018-09-24T01:54:31.087Z,1.00
2018-09-24T01:57:02.161Z,1.10
2018-09-24T01:59:33.322Z,0.80
2018-09-24T02:02:04.451Z,1.00
2018-09-24T02:04:35.735Z,1.30
2018-09-24T02:07:06.659Z,1.20
2018-09-24T02:09:38.964Z,1.03
2018-09-24T02:12:10.139Z,1.10
2018-09-24T02:14:41.294Z,1.30
2018-09-24T02:17:20.134Z,1.10
2018-09-24T02:19:54.764Z,1.00
2018-09-24T02:22:28.755Z,1.27
2018-09-24T02:25:00.512Z,0.80
2018-09-24T02:27:31.899Z,1.13
2018-09-24T02:30:03.546Z,1.10
2018-09-24T02:32:34.930Z,1.30
2018-09-24T02:35:06.068Z,1.20
2018-09-24T02:37:37.303Z,1.30
2018-09-24T02:40:24.998Z,1.10
2018-09-24T02:42:56.174Z,1.23
2018-09-24T02:45:27.348Z,1.30
2018-09-24T02:47:58.456Z,1.37
2018-09-24T02:50:38.891Z,1.17
2018-09-24T02:53:10.137Z,1.03
2018-09-24T02:55:42.177Z,1.20
2018-09-24T02:58:18.768Z,1.20
2018-09-24T03:00:50.291Z,1.40
2018-09-24T03:03:21.392Z,1.20
2018-09-24T03:05:52.559Z,1.20
2018-09-24T03:08:24.482Z,1.20
2018-09-24T03:10:56.472Z,1.50
2018-09-24T03:13:28.434Z,1.30
2018-09-24T03:15:59.404Z,1.60
2018-09-24T03:18:30.697Z,1.20
2018-09-24T03:21:01.902Z,1.40
2018-09-24T03:23:32.894Z,1.50
2018-09-24T03:26:05.930Z,1.47
2018-09-24T03:28:37.350Z,1.63
2018-09-24T03:31:08.424Z,1.70
2018-09-24T03:33:39.319Z,1.40
2018-09-24T03:36:10.410Z,1.90
2018-09-24T03:38:41.570Z,1.40
2018-09-24T03:41:12.657Z,1.40
2018-09-24T03:43:43.694Z,1.53
2018-09-24T03:46:14.776Z,1.50
2018-09-24T03:48:45.927Z,1.50
2018-09-24T03:51:16.659Z,1.47
2018-09-24T03:53:47.753Z,1.67
2018-09-24T03:56:19.267Z,1.50
2018-09-24T03:58:50.415Z,1.33
2018-09-24T04:01:21.679Z,1.43
2018-09-24T04:03:52.766Z,1.50
2018-09-24T04:06:28.902Z,1.50
2018-09-24T04:09:04.995Z,1.50
2018-09-24T04:11:40.775Z,1.77
2018-09-24T04:14:17.028Z,1.77
2018-09-24T04:16:52.756Z,1.63
2018-09-24T04:19:29.131Z,1.80
2018-09-24T04:22:05.319Z,1.80
2018-09-24T04:24:41.639Z,1.90
2018-09-24T04:27:18.077Z,1.80
2018-09-24T04:29:54.233Z,1.50
2018-09-24T04:32:30.310Z,1.93
2018-09-24T04:35:06.316Z,1.93
2018-09-24T04:37:42.867Z,1.70
2018-09-24T04:40:19.104Z,1.97
2018-09-24T04:42:55.506Z,2.10
2018-09-24T04:45:31.517Z,2.33
2018-09-24T04:48:07.634Z,2.60
2018-09-24T04:50:43.891Z,2.50
2018-09-24T04:53:20.402Z,2.33
2018-09-24T04:55:56.489Z,4.37
2018-09-24T04:58:32.593Z,5.27
2018-09-24T05:01:09.205Z,4.00
2018-09-24T05:03:45.370Z,2.83
2018-09-24T05:06:21.425Z,2.40
2018-09-24T05:08:57.610Z,2.10
2018-09-24T05:11:33.616Z,2.20
2018-09-24T05:14:09.808Z,2.50
2018-09-24T05:16:45.885Z,2.50
2018-09-24T05:19:22.530Z,2.60
2018-09-24T05:21:58.806Z,2.03
2018-09-24T05:24:34.902Z,2.23
2018-09-24T05:27:10.999Z,2.60
2018-09-24T05:29:47.273Z,2.30
2018-09-24T05:32:23.521Z,2.00
2018-09-24T05:34:59.912Z,2.37
2018-09-24T05:37:36.062Z,2.07
2018-09-24T05:40:12.424Z,2.30
2018-09-24T05:42:48.668Z,2.30
2018-09-24T05:45:24.638Z,2.60
2018-09-24T05:48:00.729Z,2.10
2018-09-24T05:50:37.043Z,2.10
2018-09-24T05:53:13.334Z,2.00
2018-09-24T05:55:49.304Z,2.60
2018-09-24T05:58:25.289Z,2.73
2018-09-24T06:01:01.403Z,2.37
2018-09-24T06:03:37.564Z,2.93
2018-09-24T06:06:13.734Z,2.43
2018-09-24T06:08:49.887Z,2.47
2018-09-24T06:11:25.854Z,2.80
2018-09-24T06:14:01.805Z,2.67
2018-09-24T06:16:38.100Z,2.70
2018-09-24T06:19:14.198Z,2.93
2018-09-24T06:21:50.632Z,2.63
2018-09-24T06:24:26.567Z,2.73
2018-09-24T06:27:02.912Z,2.93
2018-09-24T06:29:38.998Z,3.07
2018-09-24T06:32:15.147Z,2.97
2018-09-24T06:34:51.004Z,2.93
2018-09-24T06:37:27.137Z,3.23
2018-09-24T06:40:03.226Z,3.30
2018-09-24T06:42:39.282Z,3.17
2018-09-24T06:45:15.242Z,3.70
2018-09-24T06:47:51.481Z,3.80
2018-09-24T06:50:28.149Z,3.90
2018-09-24T06:53:03.883Z,3.53
2018-09-24T06:55:40.076Z,3.80
2018-09-24T06:58:16.324Z,3.57
2018-09-24T07:00:52.756Z,3.60
2018-09-24T07:03:28.990Z,3.53
2018-09-24T07:06:05.086Z,3.37
2018-09-24T07:08:41.250Z,3.17
2018-09-24T07:11:17.253Z,3.00
2018-09-24T07:13:54.106Z,2.37
2018-09-24T07:16:30.307Z,2.60
2018-09-24T07:19:06.292Z,2.70
2018-09-24T07:21:42.195Z,2.03
2018-09-24T07:24:17.926Z,1.93
2018-09-24T07:26:53.776Z,1.80
2018-09-24T07:29:29.703Z,2.10
2018-09-24T07:32:05.711Z,1.70
2018-09-24T07:34:41.511Z,1.53
2018-09-24T07:37:17.135Z,1.50
2018-09-24T07:39:52.694Z,1.30
2018-09-24T07:42:28.319Z,1.60
2018-09-24T07:45:04.105Z,1.40
2018-09-24T07:47:40.018Z,1.50
2018-09-24T07:50:15.899Z,1.10
2018-09-24T07:52:51.727Z,1.10
2018-09-24T07:55:27.830Z,1.43
2018-09-24T07:58:03.847Z,1.33
2018-09-24T08:00:39.448Z,1.63
2018-09-24T08:03:15.567Z,1.40
2018-09-24T08:05:51.426Z,1.37
2018-09-24T08:08:27.254Z,1.10
2018-09-24T08:11:03.288Z,1.33
2018-09-24T08:13:39.056Z,1.10
2018-09-24T08:16:14.776Z,1.67
2018-09-24T08:18:50.446Z,1.90
2018-09-24T08:21:26.074Z,1.47
2018-09-24T08:24:01.783Z,1.50
2018-09-24T08:26:37.701Z,1.47
2018-09-24T08:29:14.195Z,1.50
2018-09-24T08:31:49.913Z,1.07
2018-09-24T08:34:26.014Z,0.93
2018-09-24T08:37:01.583Z,1.17
2018-09-24T08:39:37.270Z,1.20
2018-09-24T08:42:13.599Z,1.30
2018-09-24T08:44:49.570Z,1.10
2018-09-24T08:47:25.199Z,1.17
2018-09-24T08:50:01.002Z,0.80
2018-09-24T08:52:36.486Z,1.50
2018-09-24T08:55:12.241Z,1.10
2018-09-24T08:57:48.122Z,1.20
2018-09-24T09:00:23.687Z,1.10
2018-09-24T09:02:59.583Z,1.10
2018-09-24T09:05:35.208Z,1.27
2018-09-24T09:08:10.912Z,1.00
2018-09-24T09:10:46.996Z,1.00
2018-09-24T09:13:22.908Z,1.27
2018-09-24T09:15:59.098Z,1.10
2018-09-24T09:18:34.798Z,0.90
2018-09-24T09:21:10.759Z,1.07
2018-09-24T09:23:46.618Z,0.67
2018-09-24T09:26:22.364Z,0.90
2018-09-24T09:28:58.645Z,1.00
2018-09-24T09:31:34.183Z,0.80
2018-09-24T09:34:09.891Z,0.80
2018-09-24T09:36:45.658Z,1.20
2018-09-24T09:39:21.519Z,0.90
2018-09-24T09:41:57.213Z,0.93
2018-09-24T09:44:33.152Z,0.83
2018-09-24T09:47:08.993Z,1.00
2018-09-24T09:49:44.906Z,1.07
2018-09-24T09:52:20.478Z,0.80
2018-09-24T09:54:55.983Z,0.83
2018-09-24T09:57:39.915Z,0.90
2018-09-24T10:00:15.847Z,0.90
2018-09-24T10:02:51.621Z,0.90
2018-09-24T10:05:27.314Z,1.07
2018-09-24T10:08:03.270Z,1.10
2018-09-24T10:10:38.952Z,0.70
2018-09-24T10:13:14.581Z,0.90
2018-09-24T10:15:50.128Z,0.77
2018-09-24T10:18:26.143Z,0.80
2018-09-24T10:21:02.060Z,0.87
2018-09-24T10:23:37.626Z,0.73
2018-09-24T10:26:13.683Z,0.70
2018-09-24T10:28:49.284Z,1.03
2018-09-24T10:31:25.359Z,1.23
2018-09-24T10:34:01.287Z,1.07
2018-09-24T10:36:37.091Z,0.70
2018-09-24T10:39:14.543Z,0.67
2018-09-24T10:41:50.600Z,0.70
2018-09-24T10:44:26.545Z,0.67
2018-09-24T10:47:02.246Z,0.90
2018-09-24T10:49:38.061Z,0.70
2018-09-24T10:52:13.982Z,1.00
2018-09-24T10:54:50.107Z,0.90
2018-09-24T10:57:26.098Z,0.90
2018-09-24T11:00:01.981Z,0.70
2018-09-24T11:02:37.575Z,0.77
2018-09-24T11:05:13.459Z,0.73
2018-09-24T11:07:49.339Z,1.07
2018-09-24T11:10:25.511Z,0.83
2018-09-24T11:13:01.486Z,0.70
2018-09-24T11:15:37.133Z,0.67
2018-09-24T11:18:13.430Z,0.60
2018-09-24T11:20:49.692Z,0.77
2018-09-24T11:23:25.353Z,0.80
2018-09-24T11:26:01.127Z,0.80
2018-09-24T11:28:37.018Z,0.77
2018-09-24T11:31:13.136Z,0.50
2018-09-24T11:33:49.271Z,0.50
2018-09-24T11:36:25.485Z,0.70
2018-09-24T11:39:01.686Z,0.80
2018-09-24T11:41:37.455Z,0.63
2018-09-24T11:44:13.684Z,0.77
2018-09-24T11:46:49.843Z,0.80
2018-09-24T11:49:25.694Z,0.70
2018-09-24T11:52:01.663Z,0.90
2018-09-24T11:54:37.502Z,0.80
2018-09-24T11:57:13.436Z,0.70
2018-09-24T11:59:49.105Z,0.70
2018-09-24T12:02:25.405Z,0.77
2018-09-24T12:05:01.813Z,0.80
2018-09-24T12:07:37.912Z,0.60
2018-09-24T12:10:13.819Z,0.73
2018-09-24T12:12:49.948Z,0.80
2018-09-24T12:15:25.894Z,0.70
2018-09-24T12:18:02.062Z,0.90
2018-09-24T12:20:38.016Z,0.80
2018-09-24T12:23:14.331Z,0.60
2018-09-24T12:25:50.532Z,0.77
2018-09-24T12:28:26.532Z,0.60
2018-09-24T12:31:02.383Z,0.90
2018-09-24T12:33:38.165Z,0.70
2018-09-24T12:36:13.945Z,0.60
2018-09-24T12:38:49.614Z,0.60
2018-09-24T12:41:25.741Z,0.63
2018-09-24T12:44:01.250Z,0.60
2018-09-24T12:46:37.292Z,0.80
2018-09-24T12:49:13.323Z,0.90
2018-09-24T12:51:49.225Z,0.63
2018-09-24T12:54:25.118Z,0.70
2018-09-24T12:57:00.887Z,0.50
2018-09-24T12:59:36.459Z,0.90
2018-09-24T13:02:12.150Z,1.00
2018-09-24T13:04:48.031Z,0.70
2018-09-24T13:07:23.603Z,0.80
2018-09-24T13:09:59.328Z,0.70
2018-09-24T13:12:35.309Z,0.60
2018-09-24T13:15:11.034Z,0.70
2018-09-24T13:17:46.942Z,0.50
2018-09-24T13:20:22.723Z,0.67
2018-09-24T13:22:58.337Z,0.57
2018-09-24T13:25:33.987Z,0.60
2018-09-24T13:28:09.929Z,0.50
2018-09-24T13:30:45.953Z,0.70
2018-09-24T13:33:21.653Z,0.50
2018-09-24T13:35:57.318Z,0.70
2018-09-24T13:38:33.286Z,0.70
2018-09-24T13:41:09.111Z,0.70
2018-09-24T13:43:45.143Z,0.70
2018-09-24T13:46:20.881Z,0.80
2018-09-24T13:48:56.467Z,0.53
2018-09-24T13:51:32.285Z,0.70
2018-09-24T13:54:08.047Z,0.63
2018-09-24T13:56:43.729Z,0.63
2018-09-24T13:59:19.200Z,1.20
2018-09-24T14:01:55.024Z,0.70
2018-09-24T14:04:31.236Z,0.70
2018-09-24T14:07:06.933Z,0.50
2018-09-24T14:09:42.653Z,0.90
2018-09-24T14:12:18.341Z,0.80
2018-09-24T14:14:54.069Z,0.80
2018-09-24T14:17:29.904Z,0.60
2018-09-24T14:20:05.665Z,0.80
2018-09-24T14:22:41.441Z,0.60
2018-09-24T14:25:17.102Z,0.50
2018-09-24T14:27:52.600Z,0.80
2018-09-24T14:30:27.987Z,0.70
2018-09-24T14:33:03.925Z,0.80
2018-09-24T14:35:39.598Z,0.50
2018-09-24T14:38:15.509Z,0.60
2018-09-24T14:40:51.237Z,0.63
2018-09-24T14:43:27.159Z,0.93
2018-09-24T14:46:02.945Z,0.70
2018-09-24T14:48:38.636Z,0.73
2018-09-24T14:51:14.463Z,0.80
2018-09-24T14:53:50.301Z,0.60
2018-09-24T14:56:25.741Z,0.63
2018-09-24T14:59:01.465Z,0.40
2018-09-24T15:01:36.860Z,0.50
2018-09-24T15:04:12.700Z,0.50
2018-09-24T15:06:48.392Z,0.67
2018-09-24T15:09:24.209Z,0.53
2018-09-24T15:12:00.061Z,1.33
2018-09-24T15:14:35.823Z,0.97
2018-09-24T15:17:11.505Z,0.90
2018-09-24T15:19:47.534Z,0.63
2018-09-24T15:22:23.408Z,1.00
2018-09-24T15:24:58.912Z,0.77
2018-09-24T15:27:34.298Z,0.60
2018-09-24T15:30:12.070Z,0.60
2018-09-24T15:32:47.659Z,0.73
2018-09-24T15:35:23.369Z,0.53
2018-09-24T15:37:59.141Z,0.50
2018-09-24T15:40:34.828Z,0.57
2018-09-24T15:43:11.129Z,0.50
2018-09-24T15:45:51.994Z,0.40
2018-09-24T15:48:32.852Z,0.40
2018-09-24T15:51:13.792Z,0.40
2018-09-24T15:53:54.613Z,0.40
2018-09-24T15:56:35.481Z,0.60
2018-09-24T15:59:16.501Z,0.40
2018-09-24T16:01:52.301Z,0.50
2018-09-24T16:04:29.264Z,0.50
2018-09-24T16:07:05.088Z,0.60
2018-09-24T16:09:40.703Z,0.40
2018-09-24T16:12:16.648Z,0.57
2018-09-24T16:14:52.640Z,0.40
2018-09-24T16:17:29.755Z,0.30
2018-09-24T16:20:05.615Z,0.50
2018-09-24T16:22:41.789Z,0.40
2018-09-24T16:25:17.569Z,0.40
2018-09-24T16:27:53.825Z,0.60
2018-09-24T16:30:29.808Z,0.30
2018-09-24T16:33:05.449Z,0.50
2018-09-24T16:35:41.771Z,0.40
2018-09-24T16:38:17.439Z,0.50
2018-09-24T16:40:53.101Z,0.30
2018-09-24T16:43:28.610Z,0.40
2018-09-24T16:46:04.413Z,0.40
2018-09-24T16:48:40.063Z,0.30
2018-09-24T16:51:15.854Z,0.40
2018-09-24T16:53:52.045Z,0.40
2018-09-24T16:56:27.789Z,0.50
2018-09-24T16:59:03.457Z,0.40
2018-09-24T17:01:39.009Z,0.30
2018-09-24T17:04:14.700Z,0.50
2018-09-24T17:06:50.421Z,0.50
2018-09-24T17:09:25.955Z,0.30
2018-09-24T17:12:02.010Z,0.47
2018-09-24T17:14:38.197Z,0.40
2018-09-24T17:17:13.623Z,0.50
2018-09-24T17:19:49.473Z,0.50
2018-09-24T17:22:25.240Z,0.40
2018-09-24T17:25:01.073Z,0.33
2018-09-24T17:27:36.774Z,0.30
2018-09-24T17:30:12.661Z,0.50
2018-09-24T17:32:48.421Z,0.50
2018-09-24T17:35:24.093Z,0.30
2018-09-24T17:38:00.254Z,0.40
2018-09-24T17:40:36.054Z,0.40
2018-09-24T17:43:11.820Z,0.47
2018-09-24T17:45:47.715Z,0.33
2018-09-24T17:48:23.600Z,0.60
2018-09-24T17:50:59.391Z,0.50
2018-09-24T17:53:35.074Z,0.40
2018-09-24T17:56:11.036Z,1.30
2018-09-24T17:58:46.770Z,1.20
2018-09-24T18:01:22.523Z,1.90
2018-09-24T18:03:58.215Z,1.80
2018-09-24T18:06:33.875Z,1.60
2018-09-24T18:09:11.215Z,1.60
2018-09-24T18:11:47.569Z,1.40
2018-09-24T18:14:23.069Z,1.30
2018-09-24T18:16:58.893Z,1.40
2018-09-24T18:19:34.340Z,1.73
2018-09-24T18:22:09.805Z,1.40
2018-09-24T18:24:50.589Z,1.40
2018-09-24T18:27:26.520Z,1.73
2018-09-24T18:30:02.444Z,1.77
2018-09-24T18:32:37.909Z,1.20
2018-09-24T18:35:13.606Z,2.00
2018-09-24T18:37:48.997Z,1.97
2018-09-24T18:40:24.563Z,0.90
2018-09-24T18:43:00.387Z,0.77
2018-09-24T18:45:36.208Z,0.80
2018-09-24T18:48:11.893Z,0.70
2018-09-24T18:50:47.575Z,0.50
2018-09-24T18:56:07.341Z,0.50
2018-09-24T18:58:43.077Z,0.80
2018-09-24T19:01:18.534Z,0.70
2018-09-24T19:03:54.225Z,0.80
2018-09-24T19:06:29.946Z,0.50
2018-09-24T19:09:05.433Z,0.53
2018-09-24T19:11:40.907Z,0.43
2018-09-24T19:14:16.569Z,0.40
2018-09-24T19:16:52.015Z,0.47
2018-09-24T19:19:27.434Z,0.40
2018-09-24T19:22:03.101Z,0.67
2018-09-24T19:24:38.468Z,0.50
2018-09-24T19:27:14.045Z,0.50
2018-09-24T19:29:49.830Z,0.60
2018-09-24T19:32:25.607Z,0.60
2018-09-24T19:35:01.296Z,0.47
2018-09-24T19:37:36.843Z,0.40
2018-09-24T19:40:12.548Z,0.50
2018-09-24T19:42:48.285Z,0.50
2018-09-24T19:45:23.945Z,0.67
2018-09-24T19:47:59.588Z,0.40
2018-09-24T19:50:35.436Z,0.50
2018-09-24T19:53:11.048Z,0.40
2018-09-24T19:55:46.701Z,0.63
2018-09-24T19:58:22.086Z,0.70
2018-09-24T20:00:57.729Z,0.80
2018-09-24T20:03:33.222Z,1.00
2018-09-24T20:06:08.624Z,0.93
2018-09-24T20:08:44.456Z,0.70
2018-09-24T20:11:20.103Z,0.80
2018-09-24T20:13:56.053Z,0.70
2018-09-24T20:16:31.491Z,0.80
2018-09-24T20:19:07.362Z,0.57
2018-09-24T20:21:42.877Z,0.80
2018-09-24T20:24:18.251Z,0.57
2018-09-24T20:26:53.917Z,0.40
2018-09-24T20:29:29.318Z,0.60
2018-09-24T20:32:05.107Z,0.60
2018-09-24T20:34:40.448Z,0.60
2018-09-24T20:37:16.215Z,0.70
2018-09-24T20:39:51.937Z,0.80
2018-09-24T20:42:27.457Z,0.80
2018-09-24T20:45:03.400Z,0.70
2018-09-24T20:47:38.914Z,0.90
2018-09-24T20:50:14.416Z,1.10
2018-09-24T20:52:50.068Z,0.83
2018-09-24T20:55:26.005Z,1.00
2018-09-24T20:58:01.625Z,1.33
2018-09-24T21:00:37.412Z,1.20
2018-09-24T21:03:13.185Z,1.27
2018-09-24T21:05:48.724Z,1.03
2018-09-24T21:08:24.093Z,1.27
2018-09-24T21:10:59.661Z,1.00
2018-09-24T21:13:35.424Z,1.30
2018-09-24T21:16:11.569Z,1.30
2018-09-24T21:18:47.292Z,1.27
2018-09-24T21:21:22.937Z,1.30
2018-09-24T21:23:58.606Z,1.17
2018-09-24T21:26:34.392Z,1.47
2018-09-24T21:29:10.061Z,1.40
2018-09-24T21:31:45.813Z,0.93
2018-09-24T21:34:21.680Z,0.87
2018-09-24T21:36:57.450Z,1.13
2018-09-24T21:39:32.960Z,1.30
2018-09-24T21:42:08.289Z,1.40
2018-09-24T21:44:44.004Z,1.47
2018-09-24T21:47:20.126Z,1.50
2018-09-24T21:49:55.812Z,1.40
2018-09-24T21:52:31.307Z,1.30
2018-09-24T21:55:07.044Z,1.60
2018-09-24T21:57:42.698Z,1.60
2018-09-24T22:00:18.344Z,1.37
2018-09-24T22:02:53.840Z,1.83
2018-09-24T22:05:29.220Z,1.87
2018-09-24T22:08:04.997Z,2.10
2018-09-24T22:10:40.412Z,2.83
2018-09-24T22:13:16.185Z,2.97
2018-09-24T22:15:52.920Z,1.73
2018-09-24T22:18:28.468Z,1.87
2018-09-24T22:21:04.120Z,1.43
2018-09-24T22:23:39.709Z,1.30
2018-09-24T22:26:15.173Z,1.30
2018-09-24T22:28:50.945Z,1.47
2018-09-24T22:31:26.684Z,1.13
2018-09-24T22:34:02.169Z,1.00
2018-09-24T22:36:37.920Z,0.90
2018-09-24T22:39:14.877Z,1.10
2018-09-24T22:41:50.456Z,1.20
2018-09-24T22:44:26.060Z,1.27
2018-09-24T22:47:01.726Z,1.20
2018-09-24T22:49:37.401Z,1.10
2018-09-24T22:52:12.862Z,1.20
2018-09-24T22:54:48.509Z,1.20
2018-09-24T22:57:24.148Z,1.10
2018-09-24T22:59:59.850Z,0.97
2018-09-24T23:02:35.185Z,0.90
2018-09-24T23:05:10.993Z,0.87
2018-09-24T23:07:46.872Z,0.40
2018-09-24T23:10:22.528Z,0.70
2018-09-24T23:12:57.936Z,0.60
2018-09-24T23:15:33.635Z,0.80
2018-09-24T23:18:09.296Z,1.77
2018-09-24T23:20:45.153Z,0.87
2018-09-24T23:23:20.689Z,0.90
2018-09-24T23:25:56.910Z,1.90
2018-09-24T23:28:32.521Z,1.37
2018-09-24T23:31:08.121Z,1.00
2018-09-24T23:33:44.009Z,0.80
2018-09-24T23:36:19.641Z,0.70
2018-09-24T23:38:55.420Z,0.80
2018-09-24T23:41:31.073Z,1.00
2018-09-24T23:44:06.558Z,1.30
2018-09-24T23:46:42.336Z,0.90
2018-09-24T23:49:17.921Z,1.10
2018-09-24T23:51:53.472Z,2.17
2018-09-24T23:54:29.132Z,1.27
2018-09-24T23:57:04.603Z,2.13
2018-09-24T23:59:40.293Z,2.00
